sensor_id;sensor_type;location;lat;lon;timestamp;P1;durP1;ratioP1;P2;durP2;ratioP2
74344;SDS011;62776;50.518;6.732;2023-03-01T00:00:20;6.82;;;6.22;;
74344;SDS011;62776;50.518;6.732;2023-03-01T00:03:15;6.50;;;6.00;;
74344;SDS011;62776;50.518;6.732;2023-03-01T00:06:02;7.20;;;6.40;;
74344;SDS011;62776;50.518;6.732;2023-03-01T00:08:49;7.57;;;6.80;;
74344;SDS011;62776;50.518;6.732;2023-03-01T00:11:38;6.97;;;6.38;;
74344;SDS011;62776;50.518;6.732;2023-03-01T00:14:28;7.00;;;6.40;;
74344;SDS011;62776;50.518;6.732;2023-03-01T00:17:20;6.55;;;5.90;;
74344;SDS011;62776;50.518;6.732;2023-03-01T00:20:08;7.30;;;6.68;;
74344;SDS011;62776;50.518;6.732;2023-03-01T00:22:55;6.50;;;5.90;;
74344;SDS011;62776;50.518;6.732;2023-03-01T00:25:43;6.60;;;5.95;;
74344;SDS011;62776;50.518;6.732;2023-03-01T00:28:29;7.70;;;7.00;;
74344;SDS011;62776;50.518;6.732;2023-03-01T00:31:23;6.47;;;5.97;;
74344;SDS011;62776;50.518;6.732;2023-03-01T00:34:13;6.85;;;6.25;;
74344;SDS011;62776;50.518;6.732;2023-03-01T00:37:01;7.25;;;6.55;;
74344;SDS011;62776;50.518;6.732;2023-03-01T00:39:50;7.68;;;6.97;;
74344;SDS011;62776;50.518;6.732;2023-03-01T00:45:29;7.50;;;6.80;;
74344;SDS011;62776;50.518;6.732;2023-03-01T00:48:19;7.00;;;6.40;;
74344;SDS011;62776;50.518;6.732;2023-03-01T00:51:11;7.97;;;7.28;;
74344;SDS011;62776;50.518;6.732;2023-03-01T00:54:01;8.15;;;7.45;;
74344;SDS011;62776;50.518;6.732;2023-03-01T00:56:49;7.20;;;6.50;;
74344;SDS011;62776;50.518;6.732;2023-03-01T00:59:36;7.20;;;6.50;;
74344;SDS011;62776;50.518;6.732;2023-03-01T01:02:23;7.70;;;7.03;;
74344;SDS011;62776;50.518;6.732;2023-03-01T01:05:10;7.03;;;6.43;;
74344;SDS011;62776;50.518;6.732;2023-03-01T01:08:03;7.43;;;6.78;;
74344;SDS011;62776;50.518;6.732;2023-03-01T01:10:50;7.95;;;7.30;;
74344;SDS011;62776;50.518;6.732;2023-03-01T01:13:37;7.22;;;6.63;;
74344;SDS011;62776;50.518;6.732;2023-03-01T01:16:25;7.72;;;7.07;;
74344;SDS011;62776;50.518;6.732;2023-03-01T01:19:13;7.95;;;7.25;;
74344;SDS011;62776;50.518;6.732;2023-03-01T01:21:59;8.07;;;7.38;;
74344;SDS011;62776;50.518;6.732;2023-03-01T01:24:47;8.15;;;7.45;;
74344;SDS011;62776;50.518;6.732;2023-03-01T01:27:33;8.13;;;7.43;;
74344;SDS011;62776;50.518;6.732;2023-03-01T01:30:21;8.13;;;7.43;;
74344;SDS011;62776;50.518;6.732;2023-03-01T01:33:07;7.47;;;6.57;;
74344;SDS011;62776;50.518;6.732;2023-03-01T01:35:55;7.55;;;6.93;;
74344;SDS011;62776;50.518;6.732;2023-03-01T01:38:42;8.50;;;7.70;;
74344;SDS011;62776;50.518;6.732;2023-03-01T01:41:28;9.35;;;8.32;;
74344;SDS011;62776;50.518;6.732;2023-03-01T01:44:16;8.23;;;7.53;;
74344;SDS011;62776;50.518;6.732;2023-03-01T01:47:06;8.40;;;7.65;;
74344;SDS011;62776;50.518;6.732;2023-03-01T01:50:04;8.93;;;8.13;;
74344;SDS011;62776;50.518;6.732;2023-03-01T01:53:01;7.97;;;7.28;;
74344;SDS011;62776;50.518;6.732;2023-03-01T01:55:49;7.38;;;6.65;;
74344;SDS011;62776;50.518;6.732;2023-03-01T01:58:42;8.40;;;7.53;;
74344;SDS011;62776;50.518;6.732;2023-03-01T02:01:37;7.68;;;6.97;;
74344;SDS011;62776;50.518;6.732;2023-03-01T02:04:25;8.30;;;7.25;;
74344;SDS011;62776;50.518;6.732;2023-03-01T02:07:15;8.32;;;7.50;;
74344;SDS011;62776;50.518;6.732;2023-03-01T02:10:04;7.65;;;7.05;;
74344;SDS011;62776;50.518;6.732;2023-03-01T02:12:51;7.55;;;6.95;;
74344;SDS011;62776;50.518;6.732;2023-03-01T02:15:39;8.70;;;8.00;;
74344;SDS011;62776;50.518;6.732;2023-03-01T02:18:30;8.35;;;7.47;;
74344;SDS011;62776;50.518;6.732;2023-03-01T02:24:35;8.80;;;8.02;;
74344;SDS011;62776;50.518;6.732;2023-03-01T02:30:49;9.55;;;8.73;;
74344;SDS011;62776;50.518;6.732;2023-03-01T02:33:57;8.27;;;7.57;;
74344;SDS011;62776;50.518;6.732;2023-03-01T02:36:45;8.40;;;7.50;;
74344;SDS011;62776;50.518;6.732;2023-03-01T02:39:40;7.75;;;7.07;;
74344;SDS011;62776;50.518;6.732;2023-03-01T02:42:32;9.90;;;9.00;;
74344;SDS011;62776;50.518;6.732;2023-03-01T02:45:22;9.13;;;8.32;;
74344;SDS011;62776;50.518;6.732;2023-03-01T02:48:09;10.50;;;8.27;;
74344;SDS011;62776;50.518;6.732;2023-03-01T02:54:21;8.82;;;8.02;;
74344;SDS011;62776;50.518;6.732;2023-03-01T02:57:16;9.05;;;8.15;;
74344;SDS011;62776;50.518;6.732;2023-03-01T03:00:07;9.27;;;8.48;;
74344;SDS011;62776;50.518;6.732;2023-03-01T03:03:05;10.00;;;8.93;;
74344;SDS011;62776;50.518;6.732;2023-03-01T03:05:52;9.02;;;8.23;;
74344;SDS011;62776;50.518;6.732;2023-03-01T03:08:39;9.38;;;8.48;;
74344;SDS011;62776;50.518;6.732;2023-03-01T03:11:25;8.70;;;7.95;;
74344;SDS011;62776;50.518;6.732;2023-03-01T03:14:13;8.50;;;7.70;;
74344;SDS011;62776;50.518;6.732;2023-03-01T03:19:31;9.50;;;8.70;;
74344;SDS011;62776;50.518;6.732;2023-03-01T03:22:16;10.23;;;9.32;;
74344;SDS011;62776;50.518;6.732;2023-03-01T03:25:03;9.45;;;8.52;;
74344;SDS011;62776;50.518;6.732;2023-03-01T03:27:50;9.90;;;9.00;;
74344;SDS011;62776;50.518;6.732;2023-03-01T03:34:12;9.90;;;9.00;;
74344;SDS011;62776;50.518;6.732;2023-03-01T03:37:04;9.10;;;8.30;;
74344;SDS011;62776;50.518;6.732;2023-03-01T03:43:35;9.73;;;8.82;;
74344;SDS011;62776;50.518;6.732;2023-03-01T03:46:24;9.93;;;9.02;;
74344;SDS011;62776;50.518;6.732;2023-03-01T03:49:11;10.30;;;9.20;;
74344;SDS011;62776;50.518;6.732;2023-03-01T03:51:57;10.27;;;9.35;;
74344;SDS011;62776;50.518;6.732;2023-03-01T03:54:44;10.40;;;9.40;;
74344;SDS011;62776;50.518;6.732;2023-03-01T03:57:30;10.13;;;9.05;;
74344;SDS011;62776;50.518;6.732;2023-03-01T04:00:19;10.48;;;9.48;;
74344;SDS011;62776;50.518;6.732;2023-03-01T04:03:07;11.50;;;10.27;;
74344;SDS011;62776;50.518;6.732;2023-03-01T04:05:56;9.82;;;8.93;;
74344;SDS011;62776;50.518;6.732;2023-03-01T04:08:45;9.23;;;8.43;;
74344;SDS011;62776;50.518;6.732;2023-03-01T04:11:31;10.02;;;9.18;;
74344;SDS011;62776;50.518;6.732;2023-03-01T04:14:21;9.93;;;8.98;;
74344;SDS011;62776;50.518;6.732;2023-03-01T04:17:08;11.00;;;9.90;;
74344;SDS011;62776;50.518;6.732;2023-03-01T04:19:55;11.43;;;10.35;;
74344;SDS011;62776;50.518;6.732;2023-03-01T04:22:41;11.05;;;9.98;;
74344;SDS011;62776;50.518;6.732;2023-03-01T04:25:30;10.90;;;9.82;;
74344;SDS011;62776;50.518;6.732;2023-03-01T04:28:18;11.20;;;10.07;;
74344;SDS011;62776;50.518;6.732;2023-03-01T04:31:14;11.27;;;10.27;;
74344;SDS011;62776;50.518;6.732;2023-03-01T04:34:04;10.77;;;9.73;;
74344;SDS011;62776;50.518;6.732;2023-03-01T04:36:53;11.20;;;10.10;;
74344;SDS011;62776;50.518;6.732;2023-03-01T04:39:41;11.50;;;10.50;;
74344;SDS011;62776;50.518;6.732;2023-03-01T04:42:33;12.80;;;11.55;;
74344;SDS011;62776;50.518;6.732;2023-03-01T04:45:22;12.40;;;11.10;;
74344;SDS011;62776;50.518;6.732;2023-03-01T04:48:09;11.13;;;10.13;;
74344;SDS011;62776;50.518;6.732;2023-03-01T04:51:00;11.43;;;10.32;;
74344;SDS011;62776;50.518;6.732;2023-03-01T04:53:49;11.37;;;10.37;;
74344;SDS011;62776;50.518;6.732;2023-03-01T04:56:41;12.38;;;11.32;;
74344;SDS011;62776;50.518;6.732;2023-03-01T04:59:28;12.57;;;11.32;;
74344;SDS011;62776;50.518;6.732;2023-03-01T05:02:16;12.25;;;11.15;;
74344;SDS011;62776;50.518;6.732;2023-03-01T05:05:02;13.65;;;12.45;;
74344;SDS011;62776;50.518;6.732;2023-03-01T05:07:52;12.93;;;10.77;;
74344;SDS011;62776;50.518;6.732;2023-03-01T05:10:46;11.18;;;10.18;;
74344;SDS011;62776;50.518;6.732;2023-03-01T05:13:37;11.57;;;10.48;;
74344;SDS011;62776;50.518;6.732;2023-03-01T05:16:26;11.57;;;10.50;;
74344;SDS011;62776;50.518;6.732;2023-03-01T05:19:15;12.45;;;11.23;;
74344;SDS011;62776;50.518;6.732;2023-03-01T05:22:03;11.88;;;10.85;;
74344;SDS011;62776;50.518;6.732;2023-03-01T05:24:57;12.80;;;11.65;;
74344;SDS011;62776;50.518;6.732;2023-03-01T05:27:43;12.80;;;11.60;;
74344;SDS011;62776;50.518;6.732;2023-03-01T05:30:35;12.00;;;10.95;;
74344;SDS011;62776;50.518;6.732;2023-03-01T05:33:24;11.40;;;10.40;;
74344;SDS011;62776;50.518;6.732;2023-03-01T05:36:13;12.48;;;11.38;;
74344;SDS011;62776;50.518;6.732;2023-03-01T05:39:00;12.80;;;11.70;;
74344;SDS011;62776;50.518;6.732;2023-03-01T05:41:58;12.10;;;10.90;;
74344;SDS011;62776;50.518;6.732;2023-03-01T05:45:00;13.50;;;12.20;;
74344;SDS011;62776;50.518;6.732;2023-03-01T05:47:47;14.45;;;12.13;;
74344;SDS011;62776;50.518;6.732;2023-03-01T05:50:35;11.95;;;10.80;;
74344;SDS011;62776;50.518;6.732;2023-03-01T05:53:24;14.02;;;12.38;;
74344;SDS011;62776;50.518;6.732;2023-03-01T05:56:12;14.95;;;13.45;;
74344;SDS011;62776;50.518;6.732;2023-03-01T05:58:58;12.45;;;11.35;;
74344;SDS011;62776;50.518;6.732;2023-03-01T06:01:45;14.85;;;12.98;;
74344;SDS011;62776;50.518;6.732;2023-03-01T06:04:35;13.05;;;11.82;;
74344;SDS011;62776;50.518;6.732;2023-03-01T06:07:21;12.80;;;11.48;;
74344;SDS011;62776;50.518;6.732;2023-03-01T06:10:08;14.27;;;12.82;;
74344;SDS011;62776;50.518;6.732;2023-03-01T06:13:02;16.70;;;14.23;;
74344;SDS011;62776;50.518;6.732;2023-03-01T06:15:57;14.20;;;12.88;;
74344;SDS011;62776;50.518;6.732;2023-03-01T06:18:50;14.10;;;12.80;;
74344;SDS011;62776;50.518;6.732;2023-03-01T06:21:43;13.93;;;12.60;;
74344;SDS011;62776;50.518;6.732;2023-03-01T06:24:31;17.35;;;15.32;;
74344;SDS011;62776;50.518;6.732;2023-03-01T06:27:19;17.45;;;15.75;;
74344;SDS011;62776;50.518;6.732;2023-03-01T06:30:13;15.77;;;14.00;;
74344;SDS011;62776;50.518;6.732;2023-03-01T06:33:03;15.65;;;14.15;;
74344;SDS011;62776;50.518;6.732;2023-03-01T06:35:50;14.52;;;13.23;;
74344;SDS011;62776;50.518;6.732;2023-03-01T06:38:39;15.65;;;14.15;;
74344;SDS011;62776;50.518;6.732;2023-03-01T06:41:27;16.17;;;14.48;;
74344;SDS011;62776;50.518;6.732;2023-03-01T06:44:13;14.27;;;12.88;;
74344;SDS011;62776;50.518;6.732;2023-03-01T06:46:59;14.80;;;13.40;;
74344;SDS011;62776;50.518;6.732;2023-03-01T06:49:49;16.25;;;14.52;;
74344;SDS011;62776;50.518;6.732;2023-03-01T06:52:37;14.77;;;13.38;;
74344;SDS011;62776;50.518;6.732;2023-03-01T06:55:30;14.65;;;13.23;;
74344;SDS011;62776;50.518;6.732;2023-03-01T06:58:16;15.95;;;14.35;;
74344;SDS011;62776;50.518;6.732;2023-03-01T07:01:08;15.20;;;13.73;;
74344;SDS011;62776;50.518;6.732;2023-03-01T07:03:55;15.48;;;14.02;;
74344;SDS011;62776;50.518;6.732;2023-03-01T07:06:42;14.40;;;12.90;;
74344;SDS011;62776;50.518;6.732;2023-03-01T07:09:34;17.80;;;13.63;;
74344;SDS011;62776;50.518;6.732;2023-03-01T07:12:21;14.77;;;13.32;;
74344;SDS011;62776;50.518;6.732;2023-03-01T07:15:20;15.75;;;14.10;;
74344;SDS011;62776;50.518;6.732;2023-03-01T07:18:08;19.70;;;15.13;;
74344;SDS011;62776;50.518;6.732;2023-03-01T07:21:04;20.08;;;16.40;;
74344;SDS011;62776;50.518;6.732;2023-03-01T07:23:59;22.63;;;17.88;;
74344;SDS011;62776;50.518;6.732;2023-03-01T07:26:57;26.60;;;23.63;;
74344;SDS011;62776;50.518;6.732;2023-03-01T07:29:44;32.97;;;28.65;;
74344;SDS011;62776;50.518;6.732;2023-03-01T07:32:34;28.33;;;24.27;;
74344;SDS011;62776;50.518;6.732;2023-03-01T07:35:22;27.65;;;24.15;;
74344;SDS011;62776;50.518;6.732;2023-03-01T07:38:13;23.40;;;19.30;;
74344;SDS011;62776;50.518;6.732;2023-03-01T07:41:00;17.42;;;15.75;;
74344;SDS011;62776;50.518;6.732;2023-03-01T07:43:48;16.75;;;15.05;;
74344;SDS011;62776;50.518;6.732;2023-03-01T07:46:41;15.70;;;14.25;;
74344;SDS011;62776;50.518;6.732;2023-03-01T07:49:30;15.90;;;14.10;;
74344;SDS011;62776;50.518;6.732;2023-03-01T07:52:22;15.05;;;13.65;;
74344;SDS011;62776;50.518;6.732;2023-03-01T07:55:18;15.57;;;14.18;;
74344;SDS011;62776;50.518;6.732;2023-03-01T07:58:05;16.10;;;14.35;;
74344;SDS011;62776;50.518;6.732;2023-03-01T08:00:56;15.93;;;14.40;;
74344;SDS011;62776;50.518;6.732;2023-03-01T08:03:47;17.63;;;15.75;;
74344;SDS011;62776;50.518;6.732;2023-03-01T08:06:35;21.00;;;18.42;;
74344;SDS011;62776;50.518;6.732;2023-03-01T08:09:23;15.00;;;13.48;;
74344;SDS011;62776;50.518;6.732;2023-03-01T08:12:10;14.63;;;13.32;;
74344;SDS011;62776;50.518;6.732;2023-03-01T08:14:57;14.98;;;13.57;;
74344;SDS011;62776;50.518;6.732;2023-03-01T08:17:44;14.73;;;13.32;;
74344;SDS011;62776;50.518;6.732;2023-03-01T08:20:34;13.68;;;12.45;;
74344;SDS011;62776;50.518;6.732;2023-03-01T08:23:28;13.88;;;11.77;;
74344;SDS011;62776;50.518;6.732;2023-03-01T08:26:16;14.85;;;13.45;;
74344;SDS011;62776;50.518;6.732;2023-03-01T08:29:06;14.70;;;13.32;;
74344;SDS011;62776;50.518;6.732;2023-03-01T08:31:53;12.93;;;11.73;;
74344;SDS011;62776;50.518;6.732;2023-03-01T08:34:41;14.63;;;13.32;;
74344;SDS011;62776;50.518;6.732;2023-03-01T08:37:30;13.65;;;12.48;;
74344;SDS011;62776;50.518;6.732;2023-03-01T08:40:19;14.10;;;12.82;;
74344;SDS011;62776;50.518;6.732;2023-03-01T08:43:08;13.93;;;12.73;;
74344;SDS011;62776;50.518;6.732;2023-03-01T08:45:54;13.60;;;12.43;;
74344;SDS011;62776;50.518;6.732;2023-03-01T08:48:40;13.75;;;12.55;;
74344;SDS011;62776;50.518;6.732;2023-03-01T08:51:34;12.50;;;11.30;;
74344;SDS011;62776;50.518;6.732;2023-03-01T08:54:24;12.73;;;11.63;;
74344;SDS011;62776;50.518;6.732;2023-03-01T08:57:10;13.57;;;12.38;;
74344;SDS011;62776;50.518;6.732;2023-03-01T08:59:57;14.18;;;12.45;;
74344;SDS011;62776;50.518;6.732;2023-03-01T09:02:49;13.35;;;12.13;;
74344;SDS011;62776;50.518;6.732;2023-03-01T09:05:37;12.75;;;11.65;;
74344;SDS011;62776;50.518;6.732;2023-03-01T09:08:24;12.60;;;11.30;;
74344;SDS011;62776;50.518;6.732;2023-03-01T09:11:17;13.23;;;12.02;;
74344;SDS011;62776;50.518;6.732;2023-03-01T09:14:07;11.80;;;10.68;;
74344;SDS011;62776;50.518;6.732;2023-03-01T09:16:53;11.77;;;10.65;;
74344;SDS011;62776;50.518;6.732;2023-03-01T09:19:43;12.35;;;11.27;;
74344;SDS011;62776;50.518;6.732;2023-03-01T09:22:29;11.60;;;10.50;;
74344;SDS011;62776;50.518;6.732;2023-03-01T09:25:16;13.05;;;11.70;;
74344;SDS011;62776;50.518;6.732;2023-03-01T09:28:04;11.98;;;10.98;;
74344;SDS011;62776;50.518;6.732;2023-03-01T09:30:50;11.80;;;10.80;;
74344;SDS011;62776;50.518;6.732;2023-03-01T09:33:37;12.82;;;11.55;;
74344;SDS011;62776;50.518;6.732;2023-03-01T09:36:24;11.88;;;10.82;;
74344;SDS011;62776;50.518;6.732;2023-03-01T09:39:10;11.63;;;10.60;;
74344;SDS011;62776;50.518;6.732;2023-03-01T09:42:00;11.70;;;10.70;;
74344;SDS011;62776;50.518;6.732;2023-03-01T09:44:57;12.88;;;11.55;;
74344;SDS011;62776;50.518;6.732;2023-03-01T09:47:47;12.15;;;11.00;;
74344;SDS011;62776;50.518;6.732;2023-03-01T09:50:38;11.13;;;10.15;;
74344;SDS011;62776;50.518;6.732;2023-03-01T09:53:32;12.20;;;11.00;;
74344;SDS011;62776;50.518;6.732;2023-03-01T09:56:37;11.90;;;10.90;;
74344;SDS011;62776;50.518;6.732;2023-03-01T10:09:15;12.40;;;11.10;;
74344;SDS011;62776;50.518;6.732;2023-03-01T10:12:25;10.25;;;9.25;;
74344;SDS011;62776;50.518;6.732;2023-03-01T10:15:18;10.30;;;9.40;;
74344;SDS011;62776;50.518;6.732;2023-03-01T10:18:18;12.13;;;10.93;;
74344;SDS011;62776;50.518;6.732;2023-03-01T10:21:15;11.18;;;10.05;;
74344;SDS011;62776;50.518;6.732;2023-03-01T10:24:10;11.30;;;10.30;;
74344;SDS011;62776;50.518;6.732;2023-03-01T10:27:12;11.27;;;10.27;;
74344;SDS011;62776;50.518;6.732;2023-03-01T10:33:23;11.88;;;10.68;;
74344;SDS011;62776;50.518;6.732;2023-03-01T10:36:26;12.32;;;11.20;;
74344;SDS011;62776;50.518;6.732;2023-03-01T10:39:22;12.20;;;11.20;;
74344;SDS011;62776;50.518;6.732;2023-03-01T10:42:22;11.80;;;10.70;;
74344;SDS011;62776;50.518;6.732;2023-03-01T10:48:21;12.18;;;10.98;;
74344;SDS011;62776;50.518;6.732;2023-03-01T10:51:12;12.80;;;11.70;;
74344;SDS011;62776;50.518;6.732;2023-03-01T10:54:13;11.98;;;10.88;;
74344;SDS011;62776;50.518;6.732;2023-03-01T10:57:04;12.00;;;10.98;;
74344;SDS011;62776;50.518;6.732;2023-03-01T11:00:00;12.43;;;11.23;;
74344;SDS011;62776;50.518;6.732;2023-03-01T11:03:11;11.63;;;10.50;;
74344;SDS011;62776;50.518;6.732;2023-03-01T11:12:01;11.65;;;10.35;;
74344;SDS011;62776;50.518;6.732;2023-03-01T11:14:51;13.85;;;11.45;;
74344;SDS011;62776;50.518;6.732;2023-03-01T11:17:43;12.55;;;11.35;;
74344;SDS011;62776;50.518;6.732;2023-03-01T11:20:34;11.88;;;10.82;;
74344;SDS011;62776;50.518;6.732;2023-03-01T11:23:23;12.13;;;11.02;;
74344;SDS011;62776;50.518;6.732;2023-03-01T11:26:16;11.90;;;10.90;;
74344;SDS011;62776;50.518;6.732;2023-03-01T11:29:04;12.48;;;11.35;;
74344;SDS011;62776;50.518;6.732;2023-03-01T11:32:06;12.93;;;11.68;;
74344;SDS011;62776;50.518;6.732;2023-03-01T11:38:23;12.05;;;11.05;;
74344;SDS011;62776;50.518;6.732;2023-03-01T11:41:15;11.05;;;10.00;;
74344;SDS011;62776;50.518;6.732;2023-03-01T11:44:14;11.55;;;10.63;;
74344;SDS011;62776;50.518;6.732;2023-03-01T11:50:40;11.60;;;10.50;;
74344;SDS011;62776;50.518;6.732;2023-03-01T11:56:46;12.32;;;10.93;;
74344;SDS011;62776;50.518;6.732;2023-03-01T11:59:51;11.23;;;10.13;;
74344;SDS011;62776;50.518;6.732;2023-03-01T12:06:22;11.38;;;10.40;;
74344;SDS011;62776;50.518;6.732;2023-03-01T12:12:27;12.02;;;11.02;;
74344;SDS011;62776;50.518;6.732;2023-03-01T12:15:27;13.45;;;11.55;;
74344;SDS011;62776;50.518;6.732;2023-03-01T12:24:30;11.45;;;10.23;;
74344;SDS011;62776;50.518;6.732;2023-03-01T12:33:57;12.70;;;11.60;;
74344;SDS011;62776;50.518;6.732;2023-03-01T12:37:22;12.23;;;11.02;;
74344;SDS011;62776;50.518;6.732;2023-03-01T12:46:15;13.02;;;11.80;;
74344;SDS011;62776;50.518;6.732;2023-03-01T12:49:48;14.13;;;10.93;;
74344;SDS011;62776;50.518;6.732;2023-03-01T12:52:57;12.55;;;11.32;;
74344;SDS011;62776;50.518;6.732;2023-03-01T12:55:47;12.82;;;11.63;;
74344;SDS011;62776;50.518;6.732;2023-03-01T12:58:39;12.65;;;11.45;;
74344;SDS011;62776;50.518;6.732;2023-03-01T13:01:45;12.13;;;10.93;;
74344;SDS011;62776;50.518;6.732;2023-03-01T13:08:07;11.38;;;10.30;;
74344;SDS011;62776;50.518;6.732;2023-03-01T13:10:59;11.60;;;10.55;;
74344;SDS011;62776;50.518;6.732;2023-03-01T13:13:49;10.88;;;9.98;;
74344;SDS011;62776;50.518;6.732;2023-03-01T13:16:41;10.55;;;9.55;;
74344;SDS011;62776;50.518;6.732;2023-03-01T13:19:32;11.48;;;10.40;;
74344;SDS011;62776;50.518;6.732;2023-03-01T13:22:26;10.85;;;9.85;;
74344;SDS011;62776;50.518;6.732;2023-03-01T13:25:20;10.70;;;9.65;;
74344;SDS011;62776;50.518;6.732;2023-03-01T13:34:39;11.68;;;10.35;;
74344;SDS011;62776;50.518;6.732;2023-03-01T13:37:32;10.20;;;8.98;;
74344;SDS011;62776;50.518;6.732;2023-03-01T13:41:07;9.88;;;9.05;;
74344;SDS011;62776;50.518;6.732;2023-03-01T13:46:39;10.32;;;9.43;;
74344;SDS011;62776;50.518;6.732;2023-03-01T13:49:29;9.13;;;8.27;;
74344;SDS011;62776;50.518;6.732;2023-03-01T13:52:43;10.13;;;9.15;;
74344;SDS011;62776;50.518;6.732;2023-03-01T13:55:44;10.38;;;9.23;;
74344;SDS011;62776;50.518;6.732;2023-03-01T13:58:44;9.77;;;8.88;;
74344;SDS011;62776;50.518;6.732;2023-03-01T14:01:35;9.48;;;8.63;;
74344;SDS011;62776;50.518;6.732;2023-03-01T14:04:23;11.95;;;9.38;;
74344;SDS011;62776;50.518;6.732;2023-03-01T14:07:21;10.60;;;8.98;;
74344;SDS011;62776;50.518;6.732;2023-03-01T14:10:11;9.07;;;8.23;;
74344;SDS011;62776;50.518;6.732;2023-03-01T14:13:07;9.13;;;8.20;;
74344;SDS011;62776;50.518;6.732;2023-03-01T14:19:36;9.70;;;8.73;;
74344;SDS011;62776;50.518;6.732;2023-03-01T14:22:27;8.18;;;7.38;;
74344;SDS011;62776;50.518;6.732;2023-03-01T14:25:26;8.13;;;7.32;;
74344;SDS011;62776;50.518;6.732;2023-03-01T14:28:24;8.70;;;7.97;;
74344;SDS011;62776;50.518;6.732;2023-03-01T14:34:21;8.55;;;7.75;;
74344;SDS011;62776;50.518;6.732;2023-03-01T14:37:10;8.18;;;7.40;;
74344;SDS011;62776;50.518;6.732;2023-03-01T14:40:24;7.75;;;6.93;;
74344;SDS011;62776;50.518;6.732;2023-03-01T14:43:15;8.95;;;7.85;;
74344;SDS011;62776;50.518;6.732;2023-03-01T14:46:21;8.32;;;7.63;;
74344;SDS011;62776;50.518;6.732;2023-03-01T14:49:29;10.85;;;7.75;;
74344;SDS011;62776;50.518;6.732;2023-03-01T14:52:20;7.88;;;7.07;;
74344;SDS011;62776;50.518;6.732;2023-03-01T14:55:16;8.32;;;7.15;;
74344;SDS011;62776;50.518;6.732;2023-03-01T14:58:13;7.20;;;6.50;;
74344;SDS011;62776;50.518;6.732;2023-03-01T15:01:10;9.07;;;7.10;;
74344;SDS011;62776;50.518;6.732;2023-03-01T15:04:02;7.65;;;6.45;;
74344;SDS011;62776;50.518;6.732;2023-03-01T15:06:50;7.05;;;6.35;;
74344;SDS011;62776;50.518;6.732;2023-03-01T15:09:40;6.90;;;6.30;;
74344;SDS011;62776;50.518;6.732;2023-03-01T15:12:39;6.78;;;5.82;;
74344;SDS011;62776;50.518;6.732;2023-03-01T15:15:36;8.88;;;7.03;;
74344;SDS011;62776;50.518;6.732;2023-03-01T15:18:28;6.82;;;6.22;;
74344;SDS011;62776;50.518;6.732;2023-03-01T15:24:20;9.55;;;6.22;;
74344;SDS011;62776;50.518;6.732;2023-03-01T15:27:14;10.10;;;9.10;;
74344;SDS011;62776;50.518;6.732;2023-03-01T15:30:05;7.10;;;6.40;;
74344;SDS011;62776;50.518;6.732;2023-03-01T15:33:17;9.37;;;8.53;;
74344;SDS011;62776;50.518;6.732;2023-03-01T15:39:54;6.50;;;5.90;;
74344;SDS011;62776;50.518;6.732;2023-03-01T15:42:42;14.20;;;12.75;;
74344;SDS011;62776;50.518;6.732;2023-03-01T15:45:30;9.25;;;8.18;;
74344;SDS011;62776;50.518;6.732;2023-03-01T15:48:20;8.48;;;7.03;;
74344;SDS011;62776;50.518;6.732;2023-03-01T15:51:12;8.30;;;7.15;;
74344;SDS011;62776;50.518;6.732;2023-03-01T15:54:09;13.52;;;12.32;;
74344;SDS011;62776;50.518;6.732;2023-03-01T15:57:04;10.43;;;9.50;;
74344;SDS011;62776;50.518;6.732;2023-03-01T15:59:57;9.25;;;8.35;;
74344;SDS011;62776;50.518;6.732;2023-03-01T16:02:43;9.10;;;8.20;;
74344;SDS011;62776;50.518;6.732;2023-03-01T16:05:31;8.50;;;7.70;;
74344;SDS011;62776;50.518;6.732;2023-03-01T16:08:26;8.20;;;7.40;;
74344;SDS011;62776;50.518;6.732;2023-03-01T16:11:17;7.88;;;7.18;;
74344;SDS011;62776;50.518;6.732;2023-03-01T16:14:05;8.02;;;7.10;;
74344;SDS011;62776;50.518;6.732;2023-03-01T16:16:51;10.82;;;7.40;;
74344;SDS011;62776;50.518;6.732;2023-03-01T16:19:43;12.13;;;10.20;;
74344;SDS011;62776;50.518;6.732;2023-03-01T16:22:29;11.13;;;10.07;;
74344;SDS011;62776;50.518;6.732;2023-03-01T16:25:18;8.32;;;7.53;;
74344;SDS011;62776;50.518;6.732;2023-03-01T16:28:07;8.15;;;7.35;;
74344;SDS011;62776;50.518;6.732;2023-03-01T16:30:56;8.73;;;7.47;;
74344;SDS011;62776;50.518;6.732;2023-03-01T16:33:42;8.65;;;7.80;;
74344;SDS011;62776;50.518;6.732;2023-03-01T16:36:34;8.73;;;7.88;;
74344;SDS011;62776;50.518;6.732;2023-03-01T16:39:21;9.63;;;8.20;;
74344;SDS011;62776;50.518;6.732;2023-03-01T16:42:08;8.73;;;7.93;;
74344;SDS011;62776;50.518;6.732;2023-03-01T16:44:54;8.82;;;7.93;;
74344;SDS011;62776;50.518;6.732;2023-03-01T16:47:41;10.00;;;8.55;;
74344;SDS011;62776;50.518;6.732;2023-03-01T16:50:28;10.23;;;9.23;;
74344;SDS011;62776;50.518;6.732;2023-03-01T16:53:14;9.95;;;8.90;;
74344;SDS011;62776;50.518;6.732;2023-03-01T16:56:02;12.65;;;7.97;;
74344;SDS011;62776;50.518;6.732;2023-03-01T16:58:51;9.85;;;8.52;;
74344;SDS011;62776;50.518;6.732;2023-03-01T17:01:39;8.90;;;8.05;;
74344;SDS011;62776;50.518;6.732;2023-03-01T17:04:26;8.98;;;8.18;;
74344;SDS011;62776;50.518;6.732;2023-03-01T17:07:12;9.60;;;8.60;;
74344;SDS011;62776;50.518;6.732;2023-03-01T17:09:59;10.40;;;8.80;;
74344;SDS011;62776;50.518;6.732;2023-03-01T17:12:47;9.75;;;8.75;;
74344;SDS011;62776;50.518;6.732;2023-03-01T17:15:41;10.38;;;9.38;;
74344;SDS011;62776;50.518;6.732;2023-03-01T17:18:27;12.10;;;11.00;;
74344;SDS011;62776;50.518;6.732;2023-03-01T17:21:13;12.82;;;11.50;;
74344;SDS011;62776;50.518;6.732;2023-03-01T17:24:01;15.15;;;13.75;;
74344;SDS011;62776;50.518;6.732;2023-03-01T17:26:48;9.98;;;8.98;;
74344;SDS011;62776;50.518;6.732;2023-03-01T17:29:34;8.93;;;7.93;;
74344;SDS011;62776;50.518;6.732;2023-03-01T17:32:23;8.98;;;8.18;;
74344;SDS011;62776;50.518;6.732;2023-03-01T17:35:09;8.63;;;7.82;;
74344;SDS011;62776;50.518;6.732;2023-03-01T17:37:58;8.90;;;7.90;;
74344;SDS011;62776;50.518;6.732;2023-03-01T17:40:44;8.65;;;7.90;;
74344;SDS011;62776;50.518;6.732;2023-03-01T17:43:33;10.40;;;9.10;;
74344;SDS011;62776;50.518;6.732;2023-03-01T17:46:19;10.55;;;9.48;;
74344;SDS011;62776;50.518;6.732;2023-03-01T17:49:06;9.93;;;8.13;;
74344;SDS011;62776;50.518;6.732;2023-03-01T17:51:53;9.07;;;8.27;;
74344;SDS011;62776;50.518;6.732;2023-03-01T17:54:39;10.43;;;8.25;;
74344;SDS011;62776;50.518;6.732;2023-03-01T17:57:26;8.93;;;8.07;;
74344;SDS011;62776;50.518;6.732;2023-03-01T18:00:14;9.27;;;8.48;;
74344;SDS011;62776;50.518;6.732;2023-03-01T18:03:02;9.77;;;8.88;;
74344;SDS011;62776;50.518;6.732;2023-03-01T18:05:49;9.50;;;8.60;;
74344;SDS011;62776;50.518;6.732;2023-03-01T18:08:35;8.85;;;8.00;;
74344;SDS011;62776;50.518;6.732;2023-03-01T18:11:22;9.02;;;8.23;;
74344;SDS011;62776;50.518;6.732;2023-03-01T18:14:09;9.38;;;8.57;;
74344;SDS011;62776;50.518;6.732;2023-03-01T18:16:55;10.10;;;9.02;;
74344;SDS011;62776;50.518;6.732;2023-03-01T18:19:42;9.40;;;8.50;;
74344;SDS011;62776;50.518;6.732;2023-03-01T18:22:29;9.48;;;8.57;;
74344;SDS011;62776;50.518;6.732;2023-03-01T18:25:17;9.38;;;8.43;;
74344;SDS011;62776;50.518;6.732;2023-03-01T18:28:04;9.60;;;8.75;;
74344;SDS011;62776;50.518;6.732;2023-03-01T18:30:57;9.95;;;9.02;;
74344;SDS011;62776;50.518;6.732;2023-03-01T18:33:45;9.35;;;8.45;;
74344;SDS011;62776;50.518;6.732;2023-03-01T18:36:33;9.30;;;8.50;;
74344;SDS011;62776;50.518;6.732;2023-03-01T18:39:20;10.10;;;9.10;;